createdAt,value
2023-02-26T00:02:35.248Z,94157.88
2023-02-26T00:05:07.818Z,94049.22
2023-02-26T00:07:36.043Z,94139.25
2023-02-26T00:10:07.524Z,93987.16
2023-02-26T00:12:46.920Z,94108.56
2023-02-26T00:15:27.098Z,94157.09
2023-02-26T00:18:03.539Z,94142.75
2023-02-26T00:20:35.264Z,94108.97
2023-02-26T00:23:38.893Z,94138.09
2023-02-26T00:26:07.408Z,94146.25
2023-02-26T00:28:37.238Z,94139.25
2023-02-26T00:31:08.256Z,94151.69
2023-02-26T00:33:39.308Z,94146.25
2023-02-26T00:36:21.969Z,93979.38
2023-02-26T00:39:39.566Z,94122.16
2023-02-26T00:42:13.149Z,94144.25
2023-02-26T00:45:22.642Z,94136.91
2023-02-26T00:48:21.716Z,94134.97
2023-02-26T00:51:09.215Z,94112.47
2023-02-26T00:55:20.980Z,94072.50
2023-02-26T00:58:08.113Z,94122.16
2023-02-26T01:00:59.801Z,94117.88
2023-02-26T01:04:21.288Z,94089.84
2023-02-26T01:07:36.314Z,94093.38
2023-02-26T01:10:33.864Z,94101.97
2023-02-26T01:13:25.953Z,94091.13
2023-02-26T01:16:16.272Z,94108.22
2023-02-26T01:18:56.381Z,94101.63
2023-02-26T01:21:32.637Z,94080.28
2023-02-26T01:24:04.701Z,94092.31
2023-02-26T01:26:37.669Z,94062.06
2023-02-26T01:29:07.308Z,94075.66
2023-02-26T01:31:57.489Z,94046.94
2023-02-26T01:34:32.913Z,94053.16
2023-02-26T01:37:06.520Z,94031.06
2023-02-26T01:39:46.048Z,93992.25
2023-02-26T01:42:21.340Z,94026.78
2023-02-26T01:44:58.833Z,94046.16
2023-02-26T01:47:36.561Z,94048.88
2023-02-26T01:50:15.117Z,94045.38
2023-02-26T01:53:22.052Z,94049.25
2023-02-26T01:55:56.730Z,93939.91
2023-02-26T01:58:29.668Z,94020.56
2023-02-26T02:00:59.884Z,94058.94
2023-02-26T02:03:31.690Z,94056.22
2023-02-26T02:06:03.376Z,94027.53
2023-02-26T02:08:33.649Z,94015.84
2023-02-26T02:11:04.235Z,94026.78
2023-02-26T02:13:58.569Z,94051.56
2023-02-26T02:16:48.726Z,94014.75
2023-02-26T02:19:54.896Z,94036.88
2023-02-26T02:22:48.039Z,94011.63
2023-02-26T02:25:49.102Z,94036.84
2023-02-26T02:28:31.833Z,94042.66
2023-02-26T02:31:08.009Z,93966.28
2023-02-26T02:33:44.194Z,93998.03
2023-02-26T02:36:17.386Z,93991.88
2023-02-26T02:38:52.286Z,93961.25
2023-02-26T02:41:33.422Z,94018.22
2023-02-26T02:44:03.746Z,94040.75
2023-02-26T02:46:37.325Z,94030.66
2023-02-26T02:49:11.631Z,94059.34
2023-02-26T02:51:53.405Z,94008.94
2023-02-26T02:54:28.646Z,94000.41
2023-02-26T02:57:02.363Z,94064.38
2023-02-26T03:02:40.502Z,94057.00
2023-02-26T03:05:37.746Z,94053.91
2023-02-26T03:08:11.726Z,94054.31
2023-02-26T03:10:41.268Z,94061.28
2023-02-26T03:13:17.707Z,94053.13
2023-02-26T03:15:54.441Z,94070.59
2023-02-26T03:18:32.796Z,94022.13
2023-02-26T03:21:11.259Z,94024.06
2023-02-26T03:23:46.413Z,94000.41
2023-02-26T03:26:29.892Z,94005.06
2023-02-26T03:29:04.938Z,94044.22
2023-02-26T03:31:37.149Z,94060.91
2023-02-26T03:34:12.203Z,94049.66
2023-02-26T03:36:44.736Z,94037.63
2023-02-26T03:39:17.945Z,93996.13
2023-02-26T03:41:52.571Z,94064.38
2023-02-26T03:44:25.769Z,93983.38
2023-02-26T03:46:59.778Z,93833.78
2023-02-26T03:49:33.044Z,94019.03
2023-02-26T03:52:02.226Z,94041.91
2023-02-26T03:54:36.450Z,94038.78
2023-02-26T03:57:04.661Z,94040.34
2023-02-26T03:59:35.276Z,94033.75
2023-02-26T04:02:07.083Z,94029.09
2023-02-26T04:04:43.537Z,94013.59
2023-02-26T04:07:13.391Z,94005.44
2023-02-26T04:09:44.008Z,94027.16
2023-02-26T04:12:12.142Z,94032.22
2023-02-26T04:14:40.099Z,94025.22
2023-02-26T04:17:08.109Z,94026.00
2023-02-26T04:19:38.793Z,94015.13
2023-02-26T04:22:10.590Z,94020.59
2023-02-26T04:24:39.574Z,94010.50
2023-02-26T04:27:12.123Z,94011.25
2023-02-26T04:29:45.294Z,94033.34
2023-02-26T04:32:13.512Z,93974.06
2023-02-26T04:34:42.971Z,93972.50
2023-02-26T04:37:11.053Z,94004.31
2023-02-26T04:39:39.631Z,93978.31
2023-02-26T04:42:09.299Z,93954.66
2023-02-26T04:44:38.689Z,93960.84
2023-02-26T04:47:07.741Z,93971.69
2023-02-26T04:49:36.090Z,93970.16
2023-02-26T04:52:06.177Z,93926.75
2023-02-26T04:54:34.061Z,93972.50
2023-02-26T04:57:02.951Z,93923.25
2023-02-26T04:59:30.837Z,93987.16
2023-02-26T05:02:35.196Z,93978.63
2023-02-26T05:05:05.810Z,93988.28
2023-02-26T05:07:35.628Z,93976.25
2023-02-26T05:10:18.402Z,93973.16
2023-02-26T05:13:06.408Z,93980.47
2023-02-26T05:15:35.077Z,93964.53
2023-02-26T05:18:11.852Z,93960.69
2023-02-26T05:20:54.854Z,93966.13
2023-02-26T05:32:11.710Z,93805.66
2023-02-26T05:34:49.203Z,93959.97
2023-02-26T05:37:18.298Z,93966.09
2023-02-26T05:40:00.113Z,93862.59
2023-02-26T05:42:28.106Z,93939.81
2023-02-26T05:44:58.935Z,93977.44
2023-02-26T05:47:29.811Z,93939.84
2023-02-26T05:50:07.398Z,93940.25
2023-02-26T05:52:35.682Z,93967.03
2023-02-26T05:55:06.154Z,93969.34
2023-02-26T05:57:37.696Z,93992.19
2023-02-26T06:00:32.262Z,93994.91
2023-02-26T06:03:06.874Z,93868.59
2023-02-26T06:05:38.572Z,93963.94
2023-02-26T06:08:06.981Z,93979.44
2023-02-26T06:10:36.423Z,93987.97
2023-02-26T06:13:04.756Z,93994.94
2023-02-26T06:15:35.797Z,93986.03
2023-02-26T06:18:03.737Z,93822.91
2023-02-26T06:20:31.642Z,93977.06
2023-02-26T06:22:59.535Z,93985.59
2023-02-26T06:25:27.512Z,93996.44
2023-02-26T06:27:56.824Z,93996.78
2023-02-26T06:30:25.319Z,93978.19
2023-02-26T06:32:53.238Z,93952.16
2023-02-26T06:35:21.130Z,93992.91
2023-02-26T06:37:49.009Z,93982.44
2023-02-26T06:40:17.282Z,94001.09
2023-02-26T06:42:45.216Z,93962.75
2023-02-26T06:45:15.355Z,93952.63
2023-02-26T06:47:43.210Z,93963.78
2023-02-26T06:50:12.564Z,93903.34
2023-02-26T06:52:40.418Z,93972.53
2023-02-26T06:55:09.520Z,93975.03
2023-02-26T06:57:37.548Z,94008.00
2023-02-26T07:00:07.631Z,93988.72
2023-02-26T07:02:37.683Z,93983.03
2023-02-26T07:05:06.048Z,93995.47
2023-02-26T07:07:33.919Z,94004.94
2023-02-26T07:10:01.824Z,93955.59
2023-02-26T07:12:29.799Z,93982.44
2023-02-26T07:14:57.609Z,93978.09
2023-02-26T07:17:25.541Z,93981.22
2023-02-26T07:19:55.130Z,93951.72
2023-02-26T07:22:23.024Z,93969.59
2023-02-26T07:24:51.297Z,93998.75
2023-02-26T07:27:19.285Z,94001.78
2023-02-26T07:29:47.395Z,93920.63
2023-02-26T07:32:15.497Z,93984.38
2023-02-26T07:34:44.098Z,93966.09
2023-02-26T07:37:13.297Z,93996.16
2023-02-26T07:39:41.195Z,93878.06
2023-02-26T07:42:09.753Z,93921.44
2023-02-26T07:44:37.941Z,93987.84
2023-02-26T07:47:06.356Z,93952.09
2023-02-26T07:49:34.424Z,93998.13
2023-02-26T07:52:03.646Z,93991.16
2023-02-26T07:54:32.923Z,93950.34
2023-02-26T07:57:01.143Z,93969.25
2023-02-26T07:59:29.467Z,94012.16
2023-02-26T08:01:57.428Z,93977.88
2023-02-26T08:04:25.553Z,94000.41
2023-02-26T08:06:54.970Z,93978.16
2023-02-26T08:09:24.525Z,93986.09
2023-02-26T08:11:53.802Z,93980.47
2023-02-26T08:14:22.731Z,93984.69
2023-02-26T08:16:51.201Z,93943.59
2023-02-26T08:19:19.419Z,93979.84
2023-02-26T08:21:47.946Z,93975.63
2023-02-26T08:24:19.186Z,93965.41
2023-02-26T08:26:47.689Z,94006.53
2023-02-26T08:29:16.968Z,94010.00
2023-02-26T08:31:45.399Z,94000.69
2023-02-26T08:34:13.702Z,94015.28
2023-02-26T08:36:41.939Z,93975.78
2023-02-26T08:39:10.459Z,93888.38
2023-02-26T08:41:38.647Z,94020.88
2023-02-26T08:44:08.383Z,94033.25
2023-02-26T08:46:37.934Z,94038.06
2023-02-26T08:49:06.021Z,93977.25
2023-02-26T08:51:34.016Z,93989.00
2023-02-26T08:54:03.445Z,94002.28
2023-02-26T08:56:32.125Z,94019.72
2023-02-26T08:58:59.973Z,94041.59
2023-02-26T09:01:28.401Z,94024.84
2023-02-26T09:03:59.205Z,94028.56
2023-02-26T09:06:27.543Z,94029.22
2023-02-26T09:08:55.684Z,94009.34
2023-02-26T09:11:23.838Z,93999.31
2023-02-26T09:13:52.979Z,94007.31
2023-02-26T09:16:20.845Z,94002.09
2023-02-26T09:18:48.792Z,94009.22
2023-02-26T09:21:19.310Z,94003.94
2023-02-26T09:23:47.896Z,93964.38
2023-02-26T09:26:16.386Z,93988.91
2023-02-26T09:28:44.509Z,93978.19
2023-02-26T09:31:13.705Z,93954.88
2023-02-26T09:33:42.425Z,93939.91
2023-02-26T09:36:11.163Z,93989.56
2023-02-26T09:38:41.361Z,93991.19
2023-02-26T09:41:17.054Z,93975.00
2023-02-26T09:43:57.895Z,93979.16
2023-02-26T09:46:38.319Z,93984.34
2023-02-26T09:49:16.576Z,93968.41
2023-02-26T09:51:48.123Z,93985.50
2023-02-26T09:54:23.412Z,93972.66
2023-02-26T09:56:56.749Z,93854.75
2023-02-26T09:59:24.763Z,93985.09
2023-02-26T10:02:00.099Z,93981.44
2023-02-26T10:04:46.057Z,93939.06
2023-02-26T10:07:22.792Z,93960.69
2023-02-26T10:10:04.282Z,93971.28
2023-02-26T10:12:37.035Z,93976.75
2023-02-26T10:15:10.775Z,93966.44
2023-02-26T10:17:46.503Z,93956.50
2023-02-26T10:20:21.548Z,93896.53
2023-02-26T10:22:59.291Z,93984.94
2023-02-26T10:25:39.237Z,93934.91
2023-02-26T10:28:29.556Z,93957.22
2023-02-26T10:31:03.572Z,94008.81
2023-02-26T10:33:40.529Z,93963.31
2023-02-26T10:36:21.331Z,93949.56
2023-02-26T10:38:52.484Z,93917.91
2023-02-26T10:41:28.559Z,93970.16
2023-02-26T10:44:04.360Z,93966.03
2023-02-26T10:46:43.475Z,93929.03
2023-02-26T10:49:48.212Z,93935.31
2023-02-26T10:52:19.040Z,93944.41
2023-02-26T10:55:01.380Z,93938.53
2023-02-26T10:57:34.129Z,93930.50
2023-02-26T11:00:03.846Z,93929.69
2023-02-26T11:02:37.605Z,93942.47
2023-02-26T11:05:08.698Z,93902.44
2023-02-26T11:07:39.132Z,93946.59
2023-02-26T11:10:16.433Z,93934.50
2023-02-26T11:12:45.890Z,93906.06
2023-02-26T11:15:15.140Z,93924.81
2023-02-26T11:17:43.989Z,93933.69
2023-02-26T11:20:20.386Z,93929.09
2023-02-26T11:22:50.876Z,93930.81
2023-02-26T11:25:24.513Z,93966.44
2023-02-26T11:27:58.422Z,93958.97
2023-02-26T11:30:28.851Z,93945.91
2023-02-26T11:33:00.447Z,93959.09
2023-02-26T11:35:29.080Z,93968.72
2023-02-26T11:38:01.803Z,93953.38
2023-02-26T11:40:39.046Z,93939.25
2023-02-26T11:43:14.066Z,93971.34
2023-02-26T11:45:46.231Z,93988.66
2023-02-26T11:48:17.344Z,93981.97
2023-02-26T11:50:49.374Z,93973.84
2023-02-26T11:53:19.613Z,93979.16
2023-02-26T11:55:59.986Z,93971.03
2023-02-26T11:58:31.600Z,93990.44
2023-02-26T12:01:02.805Z,94009.00
2023-02-26T12:03:34.307Z,93927.66
2023-02-26T12:06:04.562Z,93981.31
2023-02-26T12:08:39.013Z,94016.75
2023-02-26T12:11:19.242Z,94009.44
2023-02-26T12:14:05.728Z,94008.31
2023-02-26T12:16:42.466Z,94001.94
2023-02-26T12:19:20.163Z,93993.66
2023-02-26T12:22:08.889Z,94024.81
2023-02-26T12:25:05.619Z,94011.72
2023-02-26T12:27:50.438Z,94003.19
2023-02-26T12:30:43.931Z,94007.28
2023-02-26T12:33:25.733Z,94031.25
2023-02-26T12:36:09.951Z,94051.06
2023-02-26T12:38:45.125Z,94031.44
2023-02-26T12:41:43.197Z,93949.19
2023-02-26T12:44:24.846Z,93987.91
2023-02-26T12:47:20.359Z,94042.31
2023-02-26T12:50:07.428Z,94041.94
2023-02-26T12:52:59.695Z,94028.88
2023-02-26T12:55:37.974Z,94034.97
2023-02-26T12:58:31.791Z,94042.06
2023-02-26T13:01:12.557Z,94037.16
2023-02-26T13:03:59.222Z,94029.28
2023-02-26T13:06:59.494Z,94024.22
2023-02-26T13:09:38.646Z,93965.66
2023-02-26T13:12:21.423Z,94031.22
2023-02-26T13:14:58.128Z,93938.38
2023-02-26T13:17:34.274Z,94029.31
2023-02-26T13:20:12.169Z,94035.28
2023-02-26T13:22:46.027Z,94037.75
2023-02-26T13:25:24.773Z,94029.13
2023-02-26T13:27:56.518Z,94027.97
2023-02-26T13:30:29.539Z,94043.78
2023-02-26T13:32:59.354Z,94030.22
2023-02-26T13:35:34.309Z,94008.16
2023-02-26T13:38:08.658Z,93991.41
2023-02-26T13:40:47.860Z,94036.50
2023-02-26T13:43:28.042Z,93969.13
2023-02-26T13:46:07.901Z,94015.88
2023-02-26T13:48:46.358Z,93988.19
2023-02-26T13:51:29.022Z,94029.63
2023-02-26T13:54:01.287Z,94017.81
2023-02-26T13:57:10.069Z,94018.66
2023-02-26T13:59:48.791Z,94031.53
2023-02-26T14:02:45.675Z,94019.16
2023-02-26T14:05:35.689Z,94031.09
2023-02-26T14:08:46.012Z,94021.66
2023-02-26T14:11:42.910Z,94020.03
2023-02-26T14:14:26.132Z,93997.78
2023-02-26T14:17:38.969Z,93982.38
2023-02-26T14:20:26.169Z,94023.25
2023-02-26T14:23:29.631Z,94015.56
2023-02-26T14:26:06.569Z,94015.91
2023-02-26T14:28:45.542Z,94021.19
2023-02-26T14:31:22.124Z,94026.25
2023-02-26T14:34:13.716Z,93985.38
2023-02-26T14:36:46.922Z,94050.63
2023-02-26T14:39:30.663Z,94037.78
2023-02-26T14:42:03.475Z,93958.81
2023-02-26T14:44:37.333Z,93986.00
2023-02-26T14:47:06.271Z,94035.44
2023-02-26T14:49:36.740Z,94010.09
2023-02-26T14:52:27.616Z,94041.88
2023-02-26T14:55:31.603Z,94032.19
2023-02-26T14:58:15.406Z,93964.16
2023-02-26T15:00:50.703Z,94063.63
2023-02-26T15:03:40.009Z,94038.13
2023-02-26T15:06:23.131Z,94053.16
2023-02-26T15:09:03.171Z,94051.06
2023-02-26T15:11:41.558Z,94057.44
2023-02-26T15:14:34.799Z,94067.56
2023-02-26T15:17:14.426Z,94035.34
2023-02-26T15:19:57.601Z,94040.13
2023-02-26T15:22:36.121Z,94065.84
2023-02-26T15:25:06.431Z,94057.88
2023-02-26T15:27:36.557Z,94071.19
2023-02-26T15:30:07.089Z,94078.97
2023-02-26T15:32:41.214Z,93935.72
2023-02-26T15:35:16.832Z,94052.47
2023-02-26T15:37:49.156Z,94067.25
2023-02-26T15:40:17.622Z,94098.03
2023-02-26T15:42:49.829Z,94106.00
2023-02-26T15:45:23.586Z,94098.25
2023-02-26T15:47:56.531Z,94087.47
2023-02-26T15:50:29.529Z,94094.56
2023-02-26T15:53:00.779Z,94121.81
2023-02-26T15:55:33.795Z,94100.53
2023-02-26T15:58:02.722Z,94040.13
2023-02-26T16:00:34.544Z,94117.66
2023-02-26T16:03:04.708Z,94058.44
2023-02-26T16:05:32.897Z,94094.84
2023-02-26T16:08:00.893Z,94123.25
2023-02-26T16:10:34.525Z,94130.59
2023-02-26T16:13:03.289Z,94139.59
2023-02-26T16:15:35.543Z,94147.78
2023-02-26T16:18:07.697Z,94131.88
2023-02-26T16:20:40.202Z,94132.25
2023-02-26T16:23:12.623Z,94140.41
2023-02-26T16:25:43.181Z,94162.56
2023-02-26T16:28:16.978Z,94153.22
2023-02-26T16:30:50.030Z,94104.34
2023-02-26T16:33:19.752Z,94150.09
2023-02-26T16:35:49.488Z,94144.66
2023-02-26T16:38:21.153Z,94100.47
2023-02-26T16:40:59.160Z,94149.75
2023-02-26T16:43:51.485Z,94086.09
2023-02-26T16:46:23.937Z,94134.22
2023-02-26T16:48:55.757Z,94047.31
2023-02-26T16:51:28.835Z,94117.53
2023-02-26T16:54:00.128Z,94165.06
2023-02-26T16:56:31.757Z,94168.59
2023-02-26T16:59:08.549Z,94161.25
2023-02-26T17:01:42.599Z,94161.66
2023-02-26T17:04:16.546Z,94150.03
2023-02-26T17:06:45.030Z,94158.19
2023-02-26T17:09:37.822Z,94179.97
2023-02-26T17:12:13.623Z,94183.47
2023-02-26T17:14:43.733Z,94205.63
2023-02-26T17:17:13.665Z,94196.72
2023-02-26T17:19:41.531Z,94199.03
2023-02-26T17:22:14.823Z,94208.34
2023-02-26T17:24:45.707Z,94195.56
2023-02-26T17:27:18.146Z,94190.88
2023-02-26T17:29:51.010Z,94185.06
2023-02-26T17:32:24.071Z,94148.59
2023-02-26T17:34:52.628Z,94204.06
2023-02-26T17:37:21.028Z,94205.59
2023-02-26T17:39:48.888Z,94186.97
2023-02-26T17:42:19.517Z,94106.53
2023-02-26T17:44:47.346Z,94204.03
2023-02-26T17:47:18.141Z,94208.28
2023-02-26T17:49:47.869Z,94206.69
2023-02-26T17:52:16.451Z,94083.94
2023-02-26T17:54:44.952Z,94206.63
2023-02-26T17:57:17.057Z,94230.66
2023-02-26T17:59:45.209Z,94238.38
2023-02-26T18:02:19.249Z,94224.41
2023-02-26T18:04:48.767Z,94211.22
2023-02-26T18:07:18.017Z,94171.56
2023-02-26T18:09:47.131Z,94125.38
2023-02-26T18:12:16.356Z,94228.59
2023-02-26T18:14:44.318Z,94221.22
2023-02-26T18:17:14.552Z,94209.56
2023-02-26T18:19:42.581Z,94201.72
2023-02-26T18:22:14.675Z,94206.44
2023-02-26T18:24:42.721Z,94208.72
2023-02-26T18:27:15.517Z,94188.56
2023-02-26T18:29:44.042Z,94213.31
2023-02-26T18:32:16.831Z,94246.19
2023-02-26T18:34:45.166Z,94084.97
2023-02-26T18:37:16.959Z,94214.00
2023-02-26T18:39:46.212Z,94244.94
2023-02-26T18:42:21.097Z,94258.06
2023-02-26T18:44:50.084Z,94222.03
2023-02-26T18:47:18.873Z,94216.16
2023-02-26T18:49:47.368Z,94226.44
2023-02-26T18:52:17.167Z,94243.88
2023-02-26T18:54:45.242Z,94256.22
2023-02-26T18:57:13.145Z,94247.72
2023-02-26T18:59:41.138Z,94257.00
2023-02-26T19:02:12.016Z,94262.44
2023-02-26T19:04:40.466Z,94267.41
2023-02-26T19:07:08.697Z,94263.16
2023-02-26T19:09:37.931Z,94269.38
2023-02-26T19:12:06.440Z,94258.47
2023-02-26T19:14:34.580Z,94256.50
2023-02-26T19:17:02.741Z,94279.28
2023-02-26T19:19:30.763Z,94266.47
2023-02-26T19:21:59.000Z,94267.91
2023-02-26T19:24:26.860Z,94291.06
2023-02-26T19:26:56.482Z,94265.75
2023-02-26T19:29:24.588Z,94289.06
2023-02-26T19:31:52.554Z,94311.84
2023-02-26T19:34:21.312Z,94280.34
2023-02-26T19:36:49.953Z,94263.22
2023-02-26T19:39:19.557Z,94312.13
2023-02-26T19:41:53.062Z,94322.19
2023-02-26T19:44:23.252Z,94317.53
2023-02-26T19:46:53.056Z,94318.69
2023-02-26T19:49:21.206Z,94306.53
2023-02-26T19:51:49.123Z,94279.31
2023-02-26T19:54:17.464Z,94315.44
2023-02-26T19:56:46.699Z,94301.50
2023-02-26T19:59:14.615Z,94318.13
2023-02-26T20:01:46.442Z,94233.84
2023-02-26T20:04:14.744Z,94300.00
2023-02-26T20:06:42.708Z,94339.50
2023-02-26T20:09:12.198Z,94341.81
2023-02-26T20:11:40.319Z,94333.88
2023-02-26T20:14:08.537Z,94272.78
2023-02-26T20:16:36.900Z,94317.59
2023-02-26T20:19:06.577Z,94363.16
2023-02-26T20:21:34.752Z,94291.00
2023-02-26T20:24:02.631Z,94321.78
2023-02-26T20:26:31.290Z,94381.09
2023-02-26T20:29:00.785Z,94393.09
2023-02-26T20:31:30.763Z,94360.66
2023-02-26T20:33:59.385Z,94362.19
2023-02-26T20:36:28.822Z,94379.25
2023-02-26T20:38:56.724Z,94389.44
2023-02-26T20:41:26.157Z,94382.06
2023-02-26T20:43:54.095Z,94373.75
2023-02-26T20:46:22.166Z,94371.84
2023-02-26T20:48:50.010Z,94400.16
2023-02-26T20:51:18.074Z,94378.47
2023-02-26T20:53:47.628Z,94364.69
2023-02-26T20:56:17.764Z,94372.38
2023-02-26T20:58:45.808Z,94405.25
2023-02-26T21:01:14.254Z,94388.81
2023-02-26T21:04:01.206Z,94402.72
2023-02-26T21:06:29.291Z,94398.91
2023-02-26T21:08:59.059Z,94400.69
2023-02-26T21:11:27.682Z,94388.72
2023-02-26T21:13:56.173Z,94388.72
2023-02-26T21:16:24.830Z,94350.94
2023-02-26T21:18:55.755Z,94410.31
2023-02-26T21:21:23.891Z,94393.19
2023-02-26T21:23:53.227Z,94421.06
2023-02-26T21:26:23.225Z,94410.13
2023-02-26T21:28:52.352Z,94391.94
2023-02-26T21:31:23.085Z,94314.38
2023-02-26T21:33:51.003Z,94372.69
2023-02-26T21:36:19.322Z,94394.69
2023-02-26T21:38:48.098Z,94400.22
2023-02-26T21:41:15.951Z,94395.63
2023-02-26T21:43:45.201Z,94398.63
2023-02-26T21:46:14.426Z,94416.41
2023-02-26T21:48:42.478Z,94424.31
2023-02-26T21:51:10.297Z,94422.69
2023-02-26T21:53:38.181Z,94421.25
2023-02-26T21:56:06.385Z,94427.06
2023-02-26T21:58:34.263Z,94417.94
2023-02-26T22:01:03.691Z,94414.72
2023-02-26T22:03:31.559Z,94345.66
2023-02-26T22:06:01.901Z,94412.41
2023-02-26T22:08:29.806Z,94385.94
2023-02-26T22:10:57.641Z,94400.84
2023-02-26T22:13:25.638Z,94370.63
2023-02-26T22:15:53.524Z,94422.41
2023-02-26T22:18:22.746Z,94428.28
2023-02-26T22:20:50.652Z,94410.72
2023-02-26T22:23:18.487Z,94385.97
2023-02-26T22:25:46.545Z,94417.78
2023-02-26T22:28:14.405Z,94440.56
2023-02-26T22:30:42.399Z,94432.88
2023-02-26T22:33:10.371Z,94418.69
2023-02-26T22:35:39.699Z,94382.31
2023-02-26T22:38:07.828Z,94427.47
2023-02-26T22:40:37.152Z,94441.31
2023-02-26T22:43:05.601Z,94437.59
2023-02-26T22:45:33.608Z,94426.72
2023-02-26T22:48:01.542Z,94404.34
2023-02-26T22:50:29.458Z,94438.38
2023-02-26T22:52:58.648Z,94415.97
2023-02-26T22:55:27.914Z,94420.47
2023-02-26T22:57:55.817Z,94411.25
2023-02-26T23:00:23.848Z,94394.72
2023-02-26T23:02:51.814Z,94415.22
2023-02-26T23:05:20.687Z,94454.94
2023-02-26T23:07:49.242Z,94446.84
2023-02-26T23:10:21.449Z,94406.88
2023-02-26T23:12:50.278Z,94398.03
2023-02-26T23:15:18.125Z,94411.84
2023-02-26T23:17:45.922Z,94413.47
2023-02-26T23:20:15.234Z,94424.19
2023-02-26T23:22:44.221Z,94438.56
2023-02-26T23:25:12.231Z,94427.47
2023-02-26T23:27:41.767Z,94365.13
2023-02-26T23:30:11.583Z,94364.25
2023-02-26T23:32:39.698Z,94447.09
2023-02-26T23:35:08.333Z,94458.97
2023-02-26T23:37:36.299Z,94397.78
2023-02-26T23:40:05.490Z,94445.44
2023-02-26T23:42:33.403Z,94446.19
2023-02-26T23:45:02.690Z,94427.91
2023-02-26T23:47:30.538Z,94417.06
2023-02-26T23:49:58.412Z,94403.03
2023-02-26T23:52:26.317Z,94425.22
2023-02-26T23:54:54.779Z,94343.28
2023-02-26T23:57:22.780Z,94431.13
2023-02-26T23:59:50.742Z,94412.44
